This is the latest recevied weather packets stored in our database for station/object OK1FPA-15. If no packets are shown the sender has not sent any weather packets the latest 10 day(s).
| Time | Temp. | Humidity | Pressure | Rain* | Wind** | Luminosity | Snow |
|---|---|---|---|---|---|---|---|
| 1777660049 | 15° C | 47% | 1026.4 hPa | - | - | - | - |
| 1777659450 | 15.56° C | 46% | 1026.3 hPa | - | - | - | - |
| 1777658850 | 16.11° C | 43% | 1026.1 hPa | - | - | - | - |
| 1777658250 | 16.67° C | 42% | 1026.1 hPa | - | - | - | - |
| 1777657650 | 17.78° C | 40% | 1026 hPa | - | - | - | - |
| 1777657050 | 18.33° C | 37% | 1025.9 hPa | - | - | - | - |
| 1777656450 | 18.33° C | 35% | 1025.9 hPa | - | - | - | - |
| 1777655849 | 18.33° C | 36% | 1025.9 hPa | - | - | - | - |
| 1777655250 | 18.89° C | 35% | 1025.9 hPa | - | - | - | - |
| 1777654649 | 18.89° C | 36% | 1026 hPa | - | - | - | - |
| 1777654050 | 20.56° C | 33% | 1026 hPa | - | - | - | - |
| 1777653450 | 21.67° C | 31% | 1026.1 hPa | - | - | - | - |
| 1777652849 | 22.22° C | 29% | 1026.1 hPa | - | - | - | - |
| 1777652250 | 22.22° C | 29% | 1026.1 hPa | - | - | - | - |
| 1777651649 | 21.11° C | 31% | 1026.2 hPa | - | - | - | - |
| 1777651050 | 21.11° C | 31% | 1026.2 hPa | - | - | - | - |
| 1777650450 | 21.11° C | 31% | 1026.3 hPa | - | - | - | - |
| 1777649850 | 21.67° C | 31% | 1026.3 hPa | - | - | - | - |
| 1777649250 | 21.67° C | 30% | 1026.4 hPa | - | - | - | - |
| 1777648650 | 21.67° C | 30% | 1026.5 hPa | - | - | - | - |
| 1777648050 | 21.67° C | 30% | 1026.7 hPa | - | - | - | - |
| 1777647450 | 21.67° C | 29% | 1026.6 hPa | - | - | - | - |
| 1777646850 | 22.22° C | 30% | 1026.8 hPa | - | - | - | - |
| 1777646250 | 21.67° C | 29% | 1026.8 hPa | - | - | - | - |
| 1777645651 | 21.67° C | 30% | 1026.8 hPa | - | - | - | - |
* Rain since midnight (hover to see other rain measurements)
** Current wind speed in m/s (hover to see current wind gust speed)